Hlavní strana
METAR-TAF:

METAR-TAF

Letiště :

Bejrút, Libanon

zeměpisná šířka: 33-49N, zeměpisná délka: 035-29E, výška: 29 m

Aktuální stav počasí

Zpráva byla vytvořena před 19 minutami, v 12:00 UTC
Západní vítr 5 kt
Teplota 24°C
Vlhkost vzduchu 65%
Tlak 1016 hPa
Viditelnost: 8000 m
Skoro jasno ve výšce 2600 ft

METAR: OLBA 261200Z 28005KT 8000 FEW026 24/17 Q1016 NOSIG

Čas: 15:19 (12:19 UTC)

Předpověď počasí

Zpráva byla vytvořena před 2 hodinami a 19 minutami, v 10:00 UTC
Předpověď platná od 26 v 12 UTC do 27 v 18 UTC
Západní vítr 13 kt
Viditelnost: 8000 m
Polojasno ve výšce 2000 ft
Dočasný
od 26 v 12 UTC do 27 v 18 UTC
Viditelnost: 5000 m
kouřmo
Změna
od 26 v 18 UTC do 26 v 21 UTC
Severní vítr 13 kt

TAF: OLBA 261000Z 2612/2718 27013KT 8000 SCT020 TEMPO 2612/2718 5000 BR BECMG 2618/2621 36013KT

Stav a předpovědi počasí z více než 4 000 letišť (zprávy METAR a TAF).

Červené a žluté tečky na mapě představují dostupné meteorologické stanice.

Když kurzor umístíte na tečku, zobrazí se název stanice.

Pak kliknutím zobrazíte stav a předpověď počasí.

Chcete-li změnit mapu, kliknutím na zelené tlačítko se znaménkem +mapu přiblížíte, kliknutím na zelené tlačítko se znaménkem – mapu oddálíte a kliknutím na zelené šipky přejdete na sousední mapy.


METAR-TAF: